Time;durP1;ratioP1;P1;durP2;ratioP2;P2;SDS_P1;SDS_P2;PMS_P1;PMS_P2;Temp;Humidity;BMP_temperature;BMP_pressure;BME280_temperature;BME280_humidity;BME280_pressure;Samples;Min_cycle;Max_cycle;Signal;HPM_P1;HPM_P2
2022/07/07 00:00:33;;;;;;;4.25;1.58;;;;;;;20.24;48.27;100721.94;5072910;28;20059;-65
2022/07/07 00:03:00;;;;;;;3.45;1.58;;;;;;;20.26;48.25;100725.22;5068069;28;20049;-65
2022/07/07 00:05:27;;;;;;;5.15;2.13;;;;;;;20.30;48.28;100707.50;5073758;28;20052;-65
2022/07/07 00:07:54;;;;;;;3.45;1.88;;;;;;;20.27;47.99;100717.56;5073225;28;20060;-65
2022/07/07 00:10:22;;;;;;;3.35;1.63;;;;;;;20.25;48.22;100709.44;5073406;28;20412;-65
2022/07/07 00:12:50;;;;;;;4.35;1.90;;;;;;;20.31;48.01;100709.13;5069385;28;20052;-65
2022/07/07 00:15:17;;;;;;;4.25;2.17;;;;;;;20.30;47.94;100708.28;5073297;28;20520;-65
2022/07/07 00:17:46;;;;;;;4.05;2.13;;;;;;;20.30;48.22;100704.66;5073206;28;20059;-65
2022/07/07 00:20:13;;;;;;;3.35;1.80;;;;;;;20.27;48.07;100709.06;5073280;28;20485;-65
2022/07/07 00:22:41;;;;;;;6.65;2.47;;;;;;;20.22;48.20;100709.34;5070363;28;20057;-65
2022/07/07 00:25:09;;;;;;;4.63;2.50;;;;;;;20.26;48.32;100699.75;5072740;28;20417;-65
2022/07/07 00:27:36;;;;;;;4.95;2.00;;;;;;;20.27;48.34;100697.75;5072913;28;20059;-65
2022/07/07 00:30:04;;;;;;;4.47;2.30;;;;;;;20.29;48.24;100695.38;5072672;28;20052;-65
2022/07/07 00:32:31;;;;;;;3.42;2.13;;;;;;;20.20;48.58;100692.78;5071788;28;20053;-65
2022/07/07 00:35:00;;;;;;;6.25;2.72;;;;;;;20.23;48.61;100689.19;5073030;28;20059;-65
2022/07/07 00:37:27;;;;;;;5.30;2.58;;;;;;;20.14;49.08;100685.78;5072879;28;20079;-65
2022/07/07 00:39:55;;;;;;;4.40;2.60;;;;;;;20.18;49.02;100683.84;5069792;28;20408;-65
2022/07/07 00:42:22;;;;;;;6.32;2.88;;;;;;;20.20;49.10;100672.97;5069647;28;20071;-65
2022/07/07 00:44:49;;;;;;;5.10;3.10;;;;;;;20.24;49.18;100664.53;5071413;28;20064;-65
2022/07/07 00:47:18;;;;;;;6.65;2.80;;;;;;;20.18;49.21;100655.56;5072837;28;20052;-65
2022/07/07 00:49:46;;;;;;;5.63;2.80;;;;;;;20.19;49.39;100662.03;5072057;28;20052;-64
2022/07/07 00:52:15;;;;;;;4.80;2.67;;;;;;;20.15;49.44;100656.31;5052723;28;20417;-65
2022/07/07 00:54:51;;;;;;;4.65;2.67;;;;;;;20.06;50.00;100658.56;5052951;28;20056;-65
2022/07/07 00:57:19;;;;;;;4.55;2.60;;;;;;;20.20;49.62;100653.19;5052754;28;20382;-65
2022/07/07 00:59:46;;;;;;;5.85;2.70;;;;;;;20.07;49.94;100649.72;5052598;28;20059;-65
2022/07/07 01:02:14;;;;;;;5.65;2.45;;;;;;;20.14;49.90;100649.03;5068127;28;20056;-65
2022/07/07 01:04:41;;;;;;;5.90;2.70;;;;;;;20.14;50.08;100649.03;5072585;28;20071;-65
2022/07/07 01:07:09;;;;;;;3.83;2.28;;;;;;;20.20;50.07;100652.34;5072661;28;20421;-65
2022/07/07 01:09:39;;;;;;;4.82;2.67;;;;;;;20.14;49.97;100649.03;5072435;28;20071;-65
2022/07/07 01:12:07;;;;;;;4.45;2.70;;;;;;;20.14;50.06;100648.19;5070188;28;20057;-64
2022/07/07 01:14:34;;;;;;;7.40;3.00;;;;;;;20.13;50.16;100641.72;5072243;28;20056;-65
2022/07/07 01:17:01;;;;;;;5.90;2.80;;;;;;;20.08;50.56;100642.84;5072335;28;20071;-64
2022/07/07 01:19:29;;;;;;;7.00;2.95;;;;;;;20.01;50.65;100633.41;5072659;28;20059;-64
2022/07/07 01:22:00;;;;;;;5.85;3.00;;;;;;;20.07;50.61;100629.91;5067967;28;20516;-64
2022/07/07 01:24:30;;;;;;;5.45;2.70;;;;;;;20.13;50.36;100638.88;5070616;28;20515;-65
2022/07/07 01:27:08;;;;;;;5.03;3.00;;;;;;;20.17;50.49;100631.28;5071996;28;20072;-64
2022/07/07 01:29:37;;;;;;;3.83;2.40;;;;;;;20.08;50.88;100625.06;5071688;28;20068;-65
2022/07/07 01:32:05;;;;;;;4.82;2.83;;;;;;;20.14;50.59;100625.56;5069409;28;20071;-64
2022/07/07 01:34:33;;;;;;;5.45;2.80;;;;;;;20.15;50.75;100622.34;5072094;28;20052;-65
2022/07/07 01:37:00;;;;;;;4.35;2.60;;;;;;;19.95;51.54;100620.75;5071952;28;20052;-64
2022/07/07 01:39:29;;;;;;;3.25;2.50;;;;;;;20.07;51.22;100623.41;5070493;28;20055;-64
2022/07/07 01:41:56;;;;;;;3.85;2.70;;;;;;;20.05;51.57;100620.16;5068739;28;20059;-65
2022/07/07 01:44:24;;;;;;;4.18;2.60;;;;;;;19.94;51.88;100625.59;5072123;28;20048;-65
2022/07/07 01:46:51;;;;;;;3.42;2.13;;;;;;;19.91;52.18;100617.06;5071743;28;20064;-65
2022/07/07 01:49:19;;;;;;;3.60;2.70;;;;;;;19.95;52.17;100615.94;5071807;28;20064;-65
2022/07/07 01:51:46;;;;;;;3.85;2.25;;;;;;;20.00;52.52;100614.81;5053712;28;20056;-65
2022/07/07 01:54:14;;;;;;;4.72;2.50;;;;;;;19.95;52.83;100607.47;5055666;28;20401;-64
2022/07/07 01:56:42;;;;;;;4.15;2.35;;;;;;;19.99;52.79;100602.69;5056006;28;20494;-65
2022/07/07 01:59:10;;;;;;;6.47;2.35;;;;;;;19.89;53.20;100596.84;5059646;28;20048;-64
2022/07/07 02:01:37;;;;;;;3.85;2.47;;;;;;;19.95;53.12;100589.66;5076171;28;20416;-65
2022/07/07 02:04:04;;;;;;;3.40;2.30;;;;;;;19.91;53.38;100588.78;5075847;28;20067;-65
2022/07/07 02:06:32;;;;;;;6.45;2.50;;;;;;;19.79;53.82;100587.78;5075414;28;20434;-64
2022/07/07 02:08:59;;;;;;;5.43;2.85;;;;;;;19.81;53.77;100585.38;5073813;28;20056;-64
2022/07/07 02:11:27;;;;;;;3.95;2.03;;;;;;;19.85;53.71;100569.31;5063794;28;20060;-64
2022/07/07 02:13:56;;;;;;;3.65;2.50;;;;;;;19.84;53.90;100561.19;5075610;28;20409;-65
2022/07/07 02:16:25;;;;;;;3.17;2.40;;;;;;;19.79;54.30;100576.47;5075515;28;20136;-64
2022/07/07 02:18:54;;;;;;;4.43;2.35;;;;;;;19.84;54.06;100576.19;5075497;28;20056;-64
2022/07/07 02:21:22;;;;;;;4.82;2.40;;;;;;;19.80;54.34;100569.63;5070635;28;20052;-64
2022/07/07 02:23:51;;;;;;;5.13;3.00;;;;;;;19.75;54.68;100566.28;5075122;28;20052;-64
2022/07/07 02:26:18;;;;;;;5.20;2.77;;;;;;;19.75;54.73;100567.09;5075248;28;20053;-64
2022/07/07 02:28:46;;;;;;;6.38;3.05;;;;;;;19.68;54.96;100570.56;5075198;28;20055;-64
2022/07/07 02:31:15;;;;;;;5.00;2.70;;;;;;;19.76;55.22;100565.91;5061158;28;20152;-64
2022/07/07 02:33:43;;;;;;;6.07;2.90;;;;;;;19.75;55.34;100564.28;5054874;28;20373;-64
2022/07/07 02:36:11;;;;;;;6.03;2.92;;;;;;;19.67;56.10;100568.13;5055207;28;20060;-64
2022/07/07 02:38:45;;;;;;;5.20;2.97;;;;;;;19.60;56.44;100556.69;5055510;28;20060;-63
2022/07/07 02:41:12;;;;;;;5.60;3.03;;;;;;;19.67;56.57;100556.81;5070620;28;20420;-60
2022/07/07 02:43:39;;;;;;;7.95;3.50;;;;;;;19.57;57.27;100558.25;5075022;28;20512;-60
2022/07/07 02:46:07;;;;;;;4.45;3.55;;;;;;;19.51;57.70;100554.09;5074597;28;20048;-60
2022/07/07 02:48:35;;;;;;;8.48;3.05;;;;;;;19.51;57.94;100558.91;5074840;28;20501;-61
2022/07/07 02:51:03;;;;;;;5.53;3.53;;;;;;;19.54;57.83;100550.53;5067857;28;20158;-60
2022/07/07 02:53:30;;;;;;;6.22;3.60;;;;;;;19.47;58.52;100559.69;5074640;28;20831;-60
2022/07/07 02:55:57;;;;;;;5.45;3.17;;;;;;;19.53;58.47;100554.56;5074663;28;20063;-60
2022/07/07 02:58:25;;;;;;;5.00;3.83;;;;;;;19.51;58.72;100550.44;5074577;28;20065;-60
2022/07/07 03:00:54;;;;;;;4.97;3.38;;;;;;;19.39;59.45;100546.59;5072481;28;20572;-60
2022/07/07 03:03:21;;;;;;;6.93;3.80;;;;;;;19.45;59.54;100549.94;5074841;28;20055;-60
2022/07/07 03:05:50;;;;;;;5.18;3.58;;;;;;;19.47;60.00;100541.91;5074751;28;20493;-60
2022/07/07 03:08:18;;;;;;;6.68;3.90;;;;;;;19.44;59.72;100548.28;5074705;28;20055;-60
2022/07/07 03:10:45;;;;;;;4.90;4.18;;;;;;;19.30;60.39;100543.19;5073273;28;20059;-60
2022/07/07 03:13:12;;;;;;;5.38;3.88;;;;;;;19.41;60.51;100543.41;5072335;28;20052;-62
2022/07/07 03:15:40;;;;;;;5.30;4.28;;;;;;;19.38;61.16;100539.31;5074833;28;20405;-60
2022/07/07 03:18:07;;;;;;;5.32;4.30;;;;;;;19.34;61.27;100543.25;5074195;28;20145;-60
2022/07/07 03:20:34;;;;;;;8.15;5.32;;;;;;;19.30;61.63;100540.38;5074395;28;20053;-60
2022/07/07 03:23:04;;;;;;;7.13;4.50;;;;;;;19.30;61.64;100543.19;5073343;28;20052;-60
2022/07/07 03:25:31;;;;;;;6.95;4.90;;;;;;;19.13;62.23;100538.81;5074378;28;20053;-60
2022/07/07 03:27:59;;;;;;;9.15;4.82;;;;;;;19.16;62.38;100531.59;5074078;28;20057;-60
2022/07/07 03:30:26;;;;;;;7.75;5.05;;;;;;;19.17;62.21;100533.22;5074169;28;20413;-60
2022/07/07 03:32:53;;;;;;;7.55;5.53;;;;;;;19.11;62.88;100538.38;5071557;28;20055;-60
2022/07/07 03:35:21;;;;;;;7.50;5.60;;;;;;;19.14;63.29;100539.63;5074245;28;20051;-60
2022/07/07 03:37:48;;;;;;;6.63;5.15;;;;;;;19.03;64.42;100545.84;5074199;28;20408;-60
2022/07/07 03:40:17;;;;;;;7.82;5.57;;;;;;;18.98;65.29;100536.84;5062381;28;20053;-60
2022/07/07 03:42:44;;;;;;;7.22;6.00;;;;;;;18.99;65.54;100542.13;5054457;28;20056;-60
2022/07/07 03:45:12;;;;;;;6.72;5.63;;;;;;;18.97;66.05;100536.03;5054032;28;20156;-60
2022/07/07 03:47:39;;;;;;;9.02;6.10;;;;;;;18.88;67.22;100537.44;5053898;28;20049;-60
2022/07/07 03:50:08;;;;;;;9.77;7.22;;;;;;;18.76;68.02;100532.72;5060270;28;20527;-60
2022/07/07 03:52:35;;;;;;;10.37;7.00;;;;;;;18.78;68.44;100533.19;5073689;28;20115;-60
2022/07/07 03:55:02;;;;;;;8.93;6.47;;;;;;;18.58;69.40;100521.00;5073649;28;20053;-61
2022/07/07 03:57:31;;;;;;;7.47;6.63;;;;;;;18.62;69.41;100531.19;5073438;28;20059;-61
2022/07/07 03:59:58;;;;;;;7.93;6.60;;;;;;;18.60;69.28;100516.63;5071833;28;20056;-60
2022/07/07 04:02:26;;;;;;;9.55;7.00;;;;;;;18.53;70.10;100510.84;5073558;28;20052;-60
2022/07/07 04:04:53;;;;;;;10.02;7.40;;;;;;;18.60;70.03;100519.47;5073525;28;20052;-60
2022/07/07 04:07:21;;;;;;;7.63;6.18;;;;;;;18.66;69.86;100509.53;5073375;28;20416;-60
2022/07/07 04:09:49;;;;;;;7.05;6.28;;;;;;;18.66;69.80;100508.72;5071973;28;20048;-61
2022/07/07 04:12:16;;;;;;;8.18;6.85;;;;;;;18.62;70.17;100511.44;5068006;28;20052;-60
2022/07/07 04:14:45;;;;;;;8.88;6.80;;;;;;;18.66;70.12;100503.88;5071461;28;20484;-60
2022/07/07 04:17:12;;;;;;;8.90;6.70;;;;;;;18.65;69.82;100501.44;5073263;28;20059;-60
2022/07/07 04:19:39;;;;;;;6.72;5.93;;;;;;;18.66;70.01;100497.44;5073136;28;20400;-60
2022/07/07 04:22:07;;;;;;;7.00;6.28;;;;;;;18.51;70.90;100501.94;5072193;28;20068;-60
2022/07/07 04:24:34;;;;;;;8.63;6.82;;;;;;;18.53;70.82;100493.09;5072580;28;20048;-60
2022/07/07 04:27:02;;;;;;;7.43;6.63;;;;;;;18.55;70.78;100483.09;5073089;28;20076;-60
2022/07/07 04:29:30;;;;;;;9.98;7.13;;;;;;;18.67;70.33;100480.13;5072961;28;20048;-60
2022/07/07 04:31:58;;;;;;;8.68;6.82;;;;;;;18.60;70.64;100484.78;5067549;28;20067;-60
2022/07/07 04:34:26;;;;;;;7.30;6.50;;;;;;;18.57;70.78;100485.53;5072872;28;20052;-60
2022/07/07 04:36:53;;;;;;;9.23;7.15;;;;;;;18.51;70.88;100470.91;5072846;28;20493;-60
2022/07/07 04:39:20;;;;;;;8.55;6.38;;;;;;;18.57;70.95;100475.06;5071092;28;20052;-59
2022/07/07 04:41:48;;;;;;;7.75;6.85;;;;;;;18.54;71.03;100483.44;5073007;28;20093;-60
2022/07/07 04:44:16;;;;;;;7.90;6.93;;;;;;;18.50;71.20;100472.09;5072841;28;20048;-60
2022/07/07 04:46:43;;;;;;;11.02;6.85;;;;;;;18.54;70.91;100469.34;5072848;28;20056;-60
2022/07/07 04:49:12;;;;;;;8.32;6.20;;;;;;;18.52;70.91;100469.72;5070400;28;20064;-60
2022/07/07 04:51:39;;;;;;;8.13;6.45;;;;;;;18.47;71.13;100472.81;5071830;28;20063;-60
2022/07/07 04:54:06;;;;;;;8.95;6.03;;;;;;;18.53;70.95;100470.53;5072451;28;20056;-60
2022/07/07 04:56:34;;;;;;;8.93;5.85;;;;;;;18.59;70.98;100475.53;5072658;28;20078;-60
2022/07/07 04:59:01;;;;;;;9.20;6.60;;;;;;;18.61;71.00;100475.97;5072417;28;20409;-59
2022/07/07 05:01:28;;;;;;;8.32;6.30;;;;;;;18.67;70.43;100471.69;5063928;28;20053;-60
2022/07/07 05:03:55;;;;;;;8.43;5.80;;;;;;;18.71;70.46;100465.28;5060843;28;20052;-60
2022/07/07 05:06:24;;;;;;;8.13;6.30;;;;;;;18.77;70.78;100460.97;5071037;28;20055;-60
2022/07/07 05:08:51;;;;;;;6.07;5.17;;;;;;;18.77;70.91;100464.63;5060952;28;20052;-60
2022/07/07 05:11:19;;;;;;;8.63;6.15;;;;;;;18.88;70.91;100456.41;5070282;28;20494;-60
2022/07/07 05:13:46;;;;;;;9.68;6.45;;;;;;;18.91;70.82;100463.31;5067207;28;20489;-60
2022/07/07 05:16:13;;;;;;;7.40;6.50;;;;;;;18.85;71.51;100465.63;5071992;28;20052;-60
2022/07/07 05:18:40;;;;;;;8.45;6.45;;;;;;;18.95;71.20;100462.19;5069982;28;20048;-60
2022/07/07 05:21:08;;;;;;;9.80;7.05;;;;;;;19.01;71.10;100459.91;5071235;28;20109;-60
2022/07/07 05:23:37;;;;;;;8.32;6.15;;;;;;;18.91;71.14;100460.50;5060523;28;20049;-61
2022/07/07 05:26:04;;;;;;;7.55;5.97;;;;;;;18.88;71.63;100456.41;5022603;28;20056;-60
2022/07/07 05:28:33;;;;;;;9.32;6.32;;;;;;;18.79;72.22;100461.44;5029380;28;20060;-60
2022/07/07 05:31:02;;;;;;;10.15;7.38;;;;;;;18.73;73.56;100466.56;5014790;28;20084;-60
2022/07/07 05:33:29;;;;;;;;;;;;;;;18.63;73.26;100473.59;5018746;28;20054;-60
2022/07/07 05:35:56;;;;;;;7.65;6.70;;;;;;;18.54;73.70;100472.16;5029629;28;19921;-60
2022/07/07 05:38:24;;;;;;;8.63;7.07;;;;;;;18.62;73.75;100479.59;5032032;28;20057;-60
2022/07/07 05:40:52;;;;;;;11.15;6.95;;;;;;;18.61;73.66;100484.44;5024240;28;20049;-60
2022/07/07 05:43:20;;;;;;;8.93;7.33;;;;;;;18.62;73.46;100483.22;5021758;28;20061;-61
2022/07/07 05:45:47;;;;;;;7.32;6.63;;;;;;;18.71;73.48;100487.84;5020753;28;20045;-60
2022/07/07 05:48:15;;;;;;;8.68;7.78;;;;;;;18.65;73.96;100490.97;5031393;28;20057;-61
2022/07/07 05:50:42;;;;;;;8.75;7.80;;;;;;;18.70;74.29;100497.50;5029863;28;20060;-61
2022/07/07 05:53:10;;;;;;;7.68;6.35;;;;;;;18.75;73.35;100508.50;5028875;28;20129;-61
2022/07/07 05:55:37;;;;;;;5.75;4.55;;;;;;;18.59;73.54;100509.38;5027354;28;20049;-61
2022/07/07 05:58:05;;;;;;;3.78;3.38;;;;;;;18.50;74.19;100517.22;5029168;28;20053;-60
2022/07/07 06:00:34;;;;;;;;;;;;;;;18.38;74.68;100525.81;5023708;28;20062;-60
2022/07/07 06:03:01;;;;;;;3.60;3.15;;;;;;;18.38;75.17;100525.81;5031887;28;19926;-61
2022/07/07 06:05:29;;;;;;;3.65;2.35;;;;;;;18.34;75.20;100525.72;5022979;28;20061;-61
2022/07/07 06:07:56;;;;;;;2.92;2.20;;;;;;;18.31;75.51;100525.63;5031168;28;20050;-61
2022/07/07 06:10:24;;;;;;;3.80;2.05;;;;;;;18.23;75.94;100525.44;5013145;28;20065;-61
2022/07/07 06:12:51;;;;;;;3.72;1.92;;;;;;;18.27;75.84;100525.56;5026015;28;20054;-61
2022/07/07 06:15:21;;;;;;;1.80;1.48;;;;;;;18.38;75.41;100525.81;5019451;28;20068;-61
2022/07/07 06:17:48;;;;;;;;;;;;;;;18.55;74.60;100524.59;5023148;28;20072;-61
2022/07/07 06:20:15;;;;;;;3.05;1.27;;;;;;;18.61;74.08;100529.56;5031875;28;19921;-61
2022/07/07 06:22:42;;;;;;;3.15;1.50;;;;;;;18.75;73.47;100531.06;5031251;28;20053;-61
2022/07/07 06:25:10;;;;;;;2.05;1.40;;;;;;;18.84;73.86;100531.72;5054281;28;20067;-61
2022/07/07 06:27:37;;;;;;;1.73;1.42;;;;;;;18.93;73.54;100543.63;5055361;28;20056;-61
2022/07/07 06:30:06;;;;;;;3.03;1.95;;;;;;;18.99;73.04;100549.78;5051129;28;20440;-61
2022/07/07 06:32:35;;;;;;;6.70;2.53;;;;;;;19.09;72.17;100540.75;5051239;28;20412;-61
2022/07/07 06:35:02;;;;;;;2.50;2.30;;;;;;;19.16;71.79;100548.53;5060318;28;20049;-61
2022/07/07 06:37:29;;;;;;;4.30;2.63;;;;;;;19.11;71.76;100546.84;5069041;28;20490;-60
2022/07/07 06:39:56;;;;;;;3.35;2.70;;;;;;;19.21;71.46;100548.22;5054526;28;20049;-61
2022/07/07 06:42:24;;;;;;;3.70;2.90;;;;;;;19.26;71.13;100551.59;5055396;28;20124;-61
2022/07/07 06:44:51;;;;;;;4.25;3.15;;;;;;;19.39;71.08;100545.78;5054670;28;20053;-61
2022/07/07 06:47:18;;;;;;;4.78;3.45;;;;;;;19.41;70.33;100549.88;5055414;28;20049;-61
2022/07/07 06:49:57;;;;;;;4.28;3.60;;;;;;;19.59;70.15;100538.94;5071924;28;20393;-62
2022/07/07 06:52:25;;;;;;;4.25;3.42;;;;;;;19.63;68.94;100541.78;5058760;28;20068;-62
2022/07/07 06:54:52;;;;;;;5.90;4.15;;;;;;;19.54;69.40;100544.06;5068371;28;20397;-61
2022/07/07 06:57:19;;;;;;;4.20;3.80;;;;;;;19.67;69.45;100537.88;5069347;28;20067;-60
2022/07/07 06:59:47;;;;;;;5.63;4.25;;;;;;;20.11;68.71;100533.81;5062080;28;20064;-61
2022/07/07 07:02:14;;;;;;;5.82;3.47;;;;;;;20.46;67.10;100524.28;5067578;28;21051;-61
2022/07/07 07:04:42;;;;;;;4.10;3.33;;;;;;;20.63;66.39;100531.44;5068560;28;20155;-60
2022/07/07 07:07:10;;;;;;;4.25;3.85;;;;;;;20.46;66.92;100541.25;5065644;28;20059;-61
2022/07/07 07:09:38;;;;;;;4.95;3.40;;;;;;;20.22;67.71;100534.81;5066319;28;20412;-61
2022/07/07 07:12:06;;;;;;;4.05;3.70;;;;;;;20.15;68.14;100542.38;5056341;28;20060;-61
2022/07/07 07:14:33;;;;;;;4.07;3.77;;;;;;;20.07;68.16;100555.56;5062368;28;20055;-61
2022/07/07 07:17:02;;;;;;;3.65;3.28;;;;;;;19.92;68.30;100548.03;5063412;28;20048;-61
2022/07/07 07:19:29;;;;;;;3.27;2.83;;;;;;;19.75;69.27;100558.63;5061878;28;20056;-61
2022/07/07 07:21:57;;;;;;;3.63;2.45;;;;;;;19.60;69.42;100568.00;5067404;28;20496;-60
2022/07/07 07:24:25;;;;;;;3.35;2.60;;;;;;;19.50;69.68;100563.75;5071295;28;20057;-60
2022/07/07 07:26:53;;;;;;;3.22;2.92;;;;;;;19.53;70.24;100568.69;5070540;28;20049;-61
2022/07/07 07:29:20;;;;;;;3.60;3.03;;;;;;;19.55;70.75;100565.47;5071294;28;20052;-61
2022/07/07 07:31:48;;;;;;;4.72;2.90;;;;;;;19.73;70.21;100569.47;5056706;28;21613;-61
2022/07/07 07:34:15;;;;;;;3.42;2.45;;;;;;;19.91;69.54;100575.47;5073816;28;20064;-60
2022/07/07 07:36:42;;;;;;;3.47;2.15;;;;;;;19.95;68.72;100590.50;5064067;28;20073;-60
2022/07/07 07:39:11;;;;;;;3.58;1.60;;;;;;;19.81;68.42;100593.88;5069513;28;20059;-61
2022/07/07 07:41:40;;;;;;;3.40;1.80;;;;;;;19.57;68.14;100602.63;5073217;28;20048;-60
2022/07/07 07:44:07;;;;;;;2.42;1.30;;;;;;;19.51;68.96;100623.91;5055703;28;20048;-60
2022/07/07 07:46:34;;;;;;;2.47;0.95;;;;;;;19.35;67.05;100624.78;5068667;28;20412;-60
2022/07/07 07:49:05;;;;;;;1.20;0.70;;;;;;;19.32;67.11;100619.91;5067243;28;20051;-61
2022/07/07 07:51:32;;;;;;;2.25;0.82;;;;;;;19.36;67.44;100626.44;5071824;28;20044;-60
2022/07/07 07:53:59;;;;;;;1.23;0.70;;;;;;;19.36;66.31;100626.44;5059653;28;20052;-61
2022/07/07 07:56:27;;;;;;;1.40;0.60;;;;;;;19.47;65.50;100633.13;5062340;28;20071;-61
2022/07/07 07:58:55;;;;;;;1.83;0.85;;;;;;;19.58;66.06;100633.34;5071790;28;20064;-61
2022/07/07 08:01:23;;;;;;;1.10;0.60;;;;;;;19.82;65.31;100631.41;5071239;28;20056;-61
2022/07/07 08:03:50;;;;;;;1.83;0.63;;;;;;;19.95;64.92;100635.75;5063738;28;20048;-61
2022/07/07 08:06:17;;;;;;;1.20;0.68;;;;;;;20.16;65.06;100632.50;5061292;28;20060;-61
2022/07/07 08:08:45;;;;;;;3.08;1.00;;;;;;;20.41;64.11;100629.28;5069385;28;20412;-61
2022/07/07 08:11:12;;;;;;;3.95;1.02;;;;;;;20.64;62.89;100632.97;5070887;28;20056;-61
2022/07/07 08:13:39;;;;;;;2.90;1.13;;;;;;;20.91;63.32;100630.13;5070268;28;20048;-61
2022/07/07 08:16:08;;;;;;;3.17;1.10;;;;;;;20.94;62.04;100634.22;5071205;28;20056;-61
2022/07/07 08:18:35;;;;;;;3.83;1.13;;;;;;;21.23;61.46;100629.75;5059955;28;20060;-61
2022/07/07 08:21:03;;;;;;;3.45;1.52;;;;;;;21.33;60.75;100633.94;5064084;28;20056;-60
2022/07/07 08:23:30;;;;;;;3.47;1.50;;;;;;;21.56;61.11;100631.84;5058636;28;20059;-61
2022/07/07 08:25:58;;;;;;;4.95;1.63;;;;;;;21.92;58.76;100632.28;5065275;28;20060;-60
2022/07/07 08:28:25;;;;;;;4.20;1.60;;;;;;;21.83;59.08;100641.09;5055864;28;20061;-60
2022/07/07 08:30:53;;;;;;;4.07;1.15;;;;;;;21.62;59.22;100627.47;5058096;28;20119;-61
2022/07/07 08:33:21;;;;;;;4.45;1.30;;;;;;;21.41;58.81;100635.69;5061689;28;20060;-60
2022/07/07 08:35:49;;;;;;;3.03;1.20;;;;;;;21.11;60.42;100649.84;5070871;28;20063;-60
2022/07/07 08:38:16;;;;;;;6.15;1.48;;;;;;;20.84;61.59;100652.66;5069683;28;20048;-60
2022/07/07 08:40:43;;;;;;;2.55;1.05;;;;;;;20.58;62.54;100659.94;5061375;28;20416;-60
2022/07/07 08:43:11;;;;;;;3.88;1.50;;;;;;;20.30;63.04;100663.03;5052463;28;20060;-60
2022/07/07 08:45:38;;;;;;;3.28;1.30;;;;;;;20.03;64.25;100670.59;5067457;28;20056;-61
2022/07/07 08:48:05;;;;;;;2.85;1.00;;;;;;;19.89;65.25;100676.81;5071516;28;20064;-61
2022/07/07 08:50:38;;;;;;;2.35;0.70;;;;;;;19.74;65.42;100677.69;5068714;28;20063;-61
2022/07/07 08:53:08;;;;;;;2.28;0.50;;;;;;;19.67;65.09;100675.50;5065819;28;20061;-60
2022/07/07 08:55:36;;;;;;;2.47;0.70;;;;;;;19.69;65.15;100684.44;5065674;28;20048;-60
2022/07/07 08:58:06;;;;;;;1.73;0.87;;;;;;;19.93;65.28;100691.00;5068543;28;20044;-60
2022/07/07 09:00:33;;;;;;;2.22;0.70;;;;;;;20.18;65.54;100689.50;5063893;28;20057;-61
2022/07/07 09:03:03;;;;;;;1.65;0.77;;;;;;;20.50;63.07;100694.13;5058778;28;20044;-61
2022/07/07 09:05:37;;;;;;;1.23;0.60;;;;;;;20.71;62.58;100699.38;5065899;28;20390;-60
2022/07/07 09:08:18;;;;;;;3.65;0.80;;;;;;;21.23;60.95;100692.09;5057497;28;20048;-61
2022/07/07 09:10:47;;;;;;;1.42;0.65;;;;;;;21.81;59.17;100700.22;5070524;28;20064;-60
2022/07/07 09:13:25;;;;;;;2.92;1.00;;;;;;;22.14;57.03;100689.25;5059613;28;20056;-60
2022/07/07 09:15:53;;;;;;;3.42;1.05;;;;;;;22.35;56.98;100691.53;5060694;28;20567;-61
2022/07/07 09:18:31;;;;;;;2.50;1.00;;;;;;;22.84;55.89;100693.19;5068193;28;20051;-61
2022/07/07 09:20:59;;;;;;;4.60;1.00;;;;;;;23.34;55.50;100704.16;5069129;28;20044;-61
2022/07/07 09:23:28;;;;;;;2.28;0.85;;;;;;;24.08;53.32;100698.00;5070111;28;20063;-61
2022/07/07 09:25:55;;;;;;;2.72;1.30;;;;;;;24.47;50.85;100719.28;5060898;28;20059;-61
2022/07/07 09:28:24;;;;;;;4.53;1.20;;;;;;;24.71;50.38;100715.69;5065795;28;20057;-61
2022/07/07 09:30:51;;;;;;;4.10;1.20;;;;;;;24.69;50.91;100726.66;5063553;28;20059;-61
2022/07/07 09:33:20;;;;;;;2.80;1.30;;;;;;;25.26;50.41;100713.63;5070170;28;20059;-62
2022/07/07 09:38:36;;;;;;;3.70;1.55;;;;;;;24.28;50.51;100718.41;5069235;28;20076;-62
2022/07/07 09:41:08;;;;;;;3.85;1.35;;;;;;;23.69;51.58;100720.59;5066499;28;20519;-61
2022/07/07 09:43:37;;;;;;;2.97;1.20;;;;;;;23.06;54.37;100737.66;5051902;28;20049;-61
2022/07/07 09:46:25;;;;;;;2.65;1.15;;;;;;;22.63;55.24;100737.22;5050776;28;20068;-62
2022/07/07 09:48:54;;;;;;;3.03;1.37;;;;;;;22.60;55.52;100746.53;5060904;28;20053;-61
2022/07/07 09:51:24;;;;;;;4.07;1.50;;;;;;;22.73;56.10;100746.25;5055467;28;20510;-61
2022/07/07 09:53:55;;;;;;;;;;;;;;;22.85;55.95;100745.97;5062425;28;20055;-62
2022/07/07 09:56:23;;;;;;;3.13;1.42;;;;;;;23.64;54.02;100744.53;5055852;28;19943;-61
2022/07/07 09:58:52;;;;;;;3.47;1.30;;;;;;;24.26;52.47;100745.66;5065030;28;20424;-62
2022/07/07 10:01:21;;;;;;;2.28;1.00;;;;;;;24.27;50.96;100745.28;5062420;28;20467;-61
2022/07/07 10:03:48;;;;;;;2.25;1.00;;;;;;;24.10;50.94;100758.19;5056984;28;20048;-62
2022/07/07 10:06:15;;;;;;;2.15;1.05;;;;;;;23.84;52.38;100755.66;5062854;28;20056;-61
2022/07/07 10:08:45;;;;;;;3.45;1.20;;;;;;;23.64;52.41;100755.09;5069145;28;20052;-61
2022/07/07 10:11:17;;;;;;;3.00;1.17;;;;;;;23.50;53.69;100756.66;5059704;28;20068;-61
2022/07/07 10:13:48;;;;;;;3.17;1.10;;;;;;;23.83;51.92;100763.38;5068273;28;20053;-60
2022/07/07 10:16:16;;;;;;;2.00;0.90;;;;;;;24.15;50.17;100754.16;5068326;28;20067;-61
2022/07/07 10:18:45;;;;;;;3.25;1.08;;;;;;;24.62;49.24;100752.28;5055060;28;20404;-61
2022/07/07 10:21:14;;;;;;;2.72;1.02;;;;;;;25.98;47.13;100764.84;5062019;28;20064;-60
2022/07/07 10:23:42;;;;;;;2.00;1.02;;;;;;;26.80;46.12;100763.63;5063322;28;20045;-60
2022/07/07 10:26:10;;;;;;;4.30;0.98;;;;;;;27.53;43.67;100765.47;5068024;28;20055;-60
2022/07/07 10:28:54;;;;;;;2.70;0.90;;;;;;;28.10;42.24;100764.84;5072007;28;20053;-60
2022/07/07 10:31:24;;;;;;;2.13;1.30;;;;;;;30.70;36.70;100756.13;5054863;28;20405;-61
2022/07/07 10:33:54;;;;;;;2.10;0.90;;;;;;;31.83;35.09;100755.72;5072771;28;20055;-61
2022/07/07 10:36:22;;;;;;;3.28;0.90;;;;;;;31.12;33.83;100753.47;5068223;28;20136;-61
2022/07/07 10:38:53;;;;;;;2.00;0.73;;;;;;;30.13;36.02;100766.81;5054432;28;20406;-61
2022/07/07 10:41:25;;;;;;;3.20;0.90;;;;;;;28.93;36.93;100763.66;5051440;28;20063;-61
2022/07/07 10:44:06;;;;;;;2.28;0.95;;;;;;;27.98;39.10;100767.44;5052688;28;20515;-61
2022/07/07 10:46:35;;;;;;;3.20;0.93;;;;;;;27.20;41.53;100767.78;5055024;28;20477;-62
2022/07/07 10:49:10;;;;;;;3.88;1.10;;;;;;;26.55;42.50;100778.84;5048201;28;20055;-62
2022/07/07 10:51:54;;;;;;;1.58;0.60;;;;;;;25.78;43.54;100793.00;5061661;28;20071;-61
2022/07/07 10:54:36;;;;;;;2.20;0.70;;;;;;;25.29;44.91;100798.38;5070467;28;20049;-61
2022/07/07 10:57:14;;;;;;;2.58;0.70;;;;;;;25.07;45.47;100800.34;5073376;28;20052;-61
2022/07/07 11:00:13;;;;;;;1.67;0.73;;;;;;;24.92;46.31;100800.38;5062856;28;20048;-61
2022/07/07 11:02:42;;;;;;;2.03;0.70;;;;;;;24.97;45.83;100810.53;5056317;28;20064;-61
2022/07/07 11:05:33;;;;;;;2.03;0.60;;;;;;;25.06;45.25;100813.00;5064563;28;20051;-60
2022/07/07 11:08:21;;;;;;;2.25;0.80;;;;;;;25.37;44.75;100811.41;5072753;28;20059;-61
2022/07/07 11:10:55;;;;;;;1.20;0.52;;;;;;;25.71;44.95;100814.63;5067985;28;20049;-61
2022/07/07 11:13:29;;;;;;;1.17;0.50;;;;;;;26.30;42.84;100796.91;5067127;28;20060;-60
2022/07/07 11:16:15;;;;;;;1.88;0.80;;;;;;;26.38;42.04;100812.00;5067643;28;20374;-60
2022/07/07 11:18:44;;;;;;;0.93;0.50;;;;;;;26.12;42.61;100801.88;5063122;28;20040;-61
2022/07/07 11:21:11;;;;;;;1.88;0.75;;;;;;;25.70;42.70;100817.88;5063584;28;20067;-61
2022/07/07 11:23:52;;;;;;;1.50;0.60;;;;;;;25.20;43.76;100815.88;5070857;28;20394;-61
2022/07/07 11:26:22;;;;;;;2.08;0.90;;;;;;;24.73;45.41;100814.16;5069962;28;20054;-61
2022/07/07 11:28:50;;;;;;;1.67;0.80;;;;;;;24.62;45.98;100822.69;5073179;28;20055;-60
2022/07/07 11:31:19;;;;;;;1.88;0.80;;;;;;;24.46;46.78;100823.00;5058616;28;20053;-61
2022/07/07 11:33:52;;;;;;;1.80;0.68;;;;;;;24.57;47.63;100832.44;5054394;28;20474;-61
2022/07/07 11:36:21;;;;;;;1.67;0.70;;;;;;;24.43;47.72;100832.34;5067917;28;20048;-61